Time;durP1;ratioP1;P1;durP2;ratioP2;P2;SDS_P1;SDS_P2;PMS_P1;PMS_P2;Temp;Humidity;BMP_temperature;BMP_pressure;BME280_temperature;BME280_humidity;BME280_pressure;Samples;Min_cycle;Max_cycle;Signal;HPM_P1;HPM_P2
2022/08/06 00:02:21;;;;;;;29.77;14.43;;;;;;;-145.69;100.00;71324.78;5033896;28;20208;-75
2022/08/06 00:04:47;;;;;;;27.00;14.23;;;;;;;-145.69;100.00;71322.81;5034101;28;20196;-74
2022/08/06 00:07:14;;;;;;;29.30;14.10;;;;;;;-145.69;100.00;71338.72;5033822;28;20227;-75
2022/08/06 00:09:40;;;;;;;23.33;12.82;;;;;;;-145.69;100.00;71338.72;5033701;28;20673;-76
2022/08/06 00:12:09;;;;;;;26.23;13.07;;;;;;;-145.69;100.00;71338.72;5033773;28;20202;-74
2022/08/06 00:14:36;;;;;;;20.95;11.50;;;;;;;-145.69;100.00;71358.63;5033615;28;20250;-73
2022/08/06 00:17:02;;;;;;;21.30;10.65;;;;;;;-145.69;100.00;71354.63;5033810;28;20558;-73
2022/08/06 00:19:29;;;;;;;20.58;10.73;;;;;;;-145.69;100.00;71350.66;5033563;28;20721;-73
2022/08/06 00:21:56;;;;;;;18.08;10.20;;;;;;;-145.69;100.00;71348.66;5034167;28;20201;-75
2022/08/06 00:24:22;;;;;;;24.73;11.60;;;;;;;-145.69;100.00;71338.72;5033517;28;20208;-75
2022/08/06 00:26:49;;;;;;;22.65;11.15;;;;;;;-145.69;100.00;71340.72;5032531;28;20235;-75
2022/08/06 00:29:17;;;;;;;21.92;11.93;;;;;;;-145.69;100.00;71338.72;5033660;28;20204;-74
2022/08/06 00:31:43;;;;;;;19.45;10.52;;;;;;;-145.69;100.00;71352.66;5033776;28;20200;-74
2022/08/06 00:34:10;;;;;;;18.90;9.40;;;;;;;-145.69;100.00;71356.63;5033391;28;20203;-76
2022/08/06 00:36:37;;;;;;;15.80;8.23;;;;;;;-145.69;100.00;71358.63;5033447;28;20557;-74
2022/08/06 00:39:06;;;;;;;13.60;7.95;;;;;;;-145.69;100.00;71368.56;5033101;28;20211;-74
2022/08/06 00:41:32;;;;;;;18.85;8.98;;;;;;;-145.69;100.00;71358.63;5027556;28;20648;-74
2022/08/06 00:43:59;;;;;;;15.45;8.50;;;;;;;-145.69;100.00;71358.63;5013669;28;20200;-74
2022/08/06 00:46:27;;;;;;;12.30;7.40;;;;;;;-145.69;100.00;71350.66;5013514;28;20701;-75
2022/08/06 00:48:54;;;;;;;13.68;6.80;;;;;;;-145.69;100.00;71360.59;5013342;28;20382;-75
2022/08/06 00:51:21;;;;;;;14.27;6.97;;;;;;;-145.69;100.00;71358.63;5013649;28;20208;-75
2022/08/06 00:53:48;;;;;;;12.88;6.75;;;;;;;-145.69;100.00;71356.63;5013046;28;20227;-73
2022/08/06 00:56:14;;;;;;;14.35;6.90;;;;;;;-145.69;100.00;71370.56;5013088;28;20205;-75
2022/08/06 00:58:41;;;;;;;10.13;6.20;;;;;;;-145.69;100.00;71386.47;5012732;28;20435;-74
2022/08/06 01:01:07;;;;;;;11.27;5.68;;;;;;;-145.69;100.00;71386.47;5013151;28;20201;-74
2022/08/06 01:03:35;;;;;;;7.80;5.30;;;;;;;-145.69;100.00;71398.41;5013182;28;20211;-76
2022/08/06 01:06:02;;;;;;;8.32;4.80;;;;;;;-145.69;100.00;71388.47;5013212;28;20232;-74
2022/08/06 01:08:28;;;;;;;8.77;4.32;;;;;;;-145.69;100.00;71394.44;5012912;28;20208;-75
2022/08/06 01:10:55;;;;;;;13.00;5.05;;;;;;;-145.69;100.00;71404.38;5013315;28;20196;-76
2022/08/06 01:13:21;;;;;;;10.95;4.53;;;;;;;-145.69;100.00;71406.38;5013321;28;20201;-74
2022/08/06 01:15:53;;;;;;;6.97;4.45;;;;;;;-145.69;100.00;71414.34;5012881;28;20209;-74
2022/08/06 01:18:26;;;;;;;9.63;4.20;;;;;;;-145.69;100.00;71406.38;5013068;28;20243;-74
2022/08/06 01:21:08;;;;;;;6.70;3.90;;;;;;;-145.69;100.00;71416.31;5013036;28;20205;-75
2022/08/06 01:23:48;;;;;;;6.63;4.20;;;;;;;-145.69;100.00;71408.38;5013200;28;20208;-75
2022/08/06 01:26:29;;;;;;;8.18;4.53;;;;;;;-145.69;100.00;71422.28;5012952;28;20270;-75
2022/08/06 01:29:01;;;;;;;7.35;4.10;;;;;;;-145.69;100.00;71430.25;5012834;28;20208;-75
2022/08/06 01:31:34;;;;;;;9.95;4.20;;;;;;;-145.69;100.00;71436.22;5013129;28;20225;-75
2022/08/06 01:34:06;;;;;;;6.90;4.00;;;;;;;-145.69;100.00;71434.22;5012980;28;20205;-76
2022/08/06 01:36:40;;;;;;;15.88;4.10;;;;;;;-145.69;100.00;71430.25;5013066;28;20267;-76
2022/08/06 01:39:07;;;;;;;5.68;4.00;;;;;;;-145.69;100.00;71434.22;5015600;28;20208;-76
2022/08/06 01:41:39;;;;;;;8.40;3.97;;;;;;;-145.69;100.00;71438.22;5022014;28;20196;-75
2022/08/06 01:44:10;;;;;;;5.47;4.10;;;;;;;-145.69;100.00;71442.19;5036815;28;20212;-75
2022/08/06 01:46:37;;;;;;;12.95;4.75;;;;;;;-145.69;100.00;71436.22;5036806;28;20235;-75
2022/08/06 01:49:04;;;;;;;7.10;3.83;;;;;;;-145.69;100.00;71442.19;5036522;28;20239;-75
2022/08/06 01:51:34;;;;;;;5.50;4.00;;;;;;;-145.69;100.00;71450.16;5036366;28;20655;-76
2022/08/06 01:54:03;;;;;;;7.78;3.90;;;;;;;-145.69;100.00;71448.16;5036276;28;20196;-74
2022/08/06 01:56:33;;;;;;;8.88;4.05;;;;;;;-145.69;100.00;71440.19;5036127;28;20642;-75
2022/08/06 01:59:00;;;;;;;7.82;3.78;;;;;;;-145.69;100.00;71454.13;5036111;28;20222;-75
2022/08/06 02:01:31;;;;;;;7.25;3.90;;;;;;;-145.69;100.00;71450.16;5036134;28;20214;-74
2022/08/06 02:03:59;;;;;;;8.32;3.70;;;;;;;-145.69;100.00;71454.13;5036260;28;20609;-75
2022/08/06 02:06:29;;;;;;;6.40;3.92;;;;;;;-145.69;100.00;71456.13;5036044;28;20708;-75
2022/08/06 02:08:57;;;;;;;7.30;3.47;;;;;;;-145.69;100.00;71442.19;5036147;28;20604;-75
2022/08/06 02:11:24;;;;;;;7.28;3.80;;;;;;;-145.69;100.00;71448.16;5016267;28;20201;-75
2022/08/06 02:13:53;;;;;;;7.55;3.58;;;;;;;-145.69;100.00;71456.13;4996809;28;20202;-74
2022/08/06 02:16:21;;;;;;;8.27;3.55;;;;;;;-145.69;100.00;71458.09;4996401;28;20683;-74
2022/08/06 02:18:51;;;;;;;10.18;3.22;;;;;;;-145.69;100.00;71450.16;4996474;28;20289;-74
2022/08/06 02:21:21;;;;;;;5.38;3.70;;;;;;;-145.69;100.00;71452.16;4996616;28;20206;-74
2022/08/06 02:23:51;;;;;;;4.57;3.10;;;;;;;-145.69;100.00;71460.09;4996660;28;20302;-75
2022/08/06 02:26:19;;;;;;;5.65;3.28;;;;;;;-145.69;100.00;71464.09;4996481;28;20225;-75
2022/08/06 02:28:47;;;;;;;6.43;3.38;;;;;;;-145.69;100.00;71466.06;4996150;28;20678;-75
2022/08/06 02:31:14;;;;;;;5.82;3.30;;;;;;;-145.69;100.00;71476.03;4996226;28;20205;-76
2022/08/06 02:33:40;;;;;;;7.97;3.50;;;;;;;-145.69;100.00;71478.00;4996157;28;20255;-75
2022/08/06 02:36:16;;;;;;;9.80;3.30;;;;;;;-145.69;100.00;71483.97;4996021;28;20208;-74
2022/08/06 02:38:54;;;;;;;8.60;3.03;;;;;;;-145.69;100.00;71483.97;4996370;28;20201;-74
2022/08/06 02:41:24;;;;;;;4.15;2.90;;;;;;;-145.69;100.00;71485.97;5003944;28;20204;-75
2022/08/06 02:43:53;;;;;;;7.38;2.97;;;;;;;-145.69;100.00;71482.00;5035409;28;20191;-76
2022/08/06 02:46:24;;;;;;;4.90;2.90;;;;;;;-145.69;100.00;71478.00;5035159;28;20228;-74
2022/08/06 02:48:54;;;;;;;4.75;2.83;;;;;;;-145.69;100.00;71485.97;5035196;28;20287;-74
2022/08/06 02:51:28;;;;;;;5.97;3.25;;;;;;;-145.69;100.00;71485.97;5034719;28;20598;-74
2022/08/06 02:54:00;;;;;;;8.23;3.70;;;;;;;-145.69;100.00;71478.00;5035035;28;20678;-74
2022/08/06 02:56:29;;;;;;;7.28;3.05;;;;;;;-145.69;100.00;71476.03;5035414;28;20258;-74
2022/08/06 02:58:58;;;;;;;5.85;3.00;;;;;;;-145.69;100.00;71478.00;5035051;28;20204;-74
2022/08/06 03:01:30;;;;;;;8.52;3.08;;;;;;;-145.69;100.00;71478.00;5035090;28;20242;-76
2022/08/06 03:04:01;;;;;;;8.13;3.40;;;;;;;-145.69;100.00;71476.03;5035016;28;20200;-75
2022/08/06 03:06:32;;;;;;;4.65;2.85;;;;;;;-145.69;100.00;71480.00;5034991;28;20224;-76
2022/08/06 03:09:02;;;;;;;6.57;3.38;;;;;;;-145.69;100.00;71478.00;5034972;28;20266;-74
2022/08/06 03:11:32;;;;;;;9.25;3.97;;;;;;;-145.69;100.00;71497.91;5034222;28;20228;-74
2022/08/06 03:14:00;;;;;;;4.78;3.17;;;;;;;-145.69;100.00;71509.84;5035430;28;20611;-74
2022/08/06 03:16:28;;;;;;;6.53;3.67;;;;;;;-145.69;100.00;71509.84;5034830;28;20200;-74
2022/08/06 03:18:56;;;;;;;7.43;3.22;;;;;;;-145.69;100.00;71503.88;5034373;28;20235;-74
2022/08/06 03:21:24;;;;;;;7.03;3.55;;;;;;;-145.69;100.00;71503.88;5034173;28;20200;-73
2022/08/06 03:23:52;;;;;;;6.63;3.10;;;;;;;-145.69;100.00;71501.88;5034540;28;20532;-74
2022/08/06 03:26:19;;;;;;;6.30;3.15;;;;;;;-145.69;100.00;71505.88;5034760;28;20204;-75
2022/08/06 03:28:47;;;;;;;5.00;3.35;;;;;;;-145.69;100.00;71513.81;5034004;28;20662;-75
2022/08/06 03:31:14;;;;;;;4.13;3.22;;;;;;;-145.69;100.00;71515.81;5034423;28;20235;-75
2022/08/06 03:33:40;;;;;;;5.78;3.10;;;;;;;-145.69;100.00;71517.81;5034351;28;20650;-75
2022/08/06 03:36:10;;;;;;;6.05;3.00;;;;;;;-145.69;100.00;71521.78;5034397;28;20200;-75
2022/08/06 03:38:40;;;;;;;4.05;3.20;;;;;;;-145.69;100.00;71521.78;5034009;28;20212;-75
2022/08/06 03:41:09;;;;;;;7.68;3.55;;;;;;;-145.69;100.00;71517.81;5031937;28;20204;-76
2022/08/06 03:43:36;;;;;;;6.18;2.92;;;;;;;-145.69;100.00;71509.84;5014690;28;20204;-76
2022/08/06 03:46:06;;;;;;;5.00;3.47;;;;;;;-145.69;100.00;71517.81;5014433;28;20197;-76
2022/08/06 03:48:35;;;;;;;6.95;3.13;;;;;;;-145.69;100.00;71509.84;5014393;28;20618;-75
2022/08/06 03:51:05;;;;;;;5.20;2.75;;;;;;;-145.69;100.00;71509.84;5014490;28;20203;-76
2022/08/06 03:53:36;;;;;;;8.40;3.38;;;;;;;-145.69;100.00;71513.81;5014568;28;20196;-75
2022/08/06 03:56:05;;;;;;;9.60;3.60;;;;;;;-145.69;100.00;71509.84;5014285;28;20207;-74
2022/08/06 03:58:36;;;;;;;6.20;2.95;;;;;;;-145.69;100.00;71525.78;5014232;28;20216;-75
2022/08/06 04:01:05;;;;;;;6.68;2.90;;;;;;;-145.69;100.00;71529.75;5014202;28;20667;-77
2022/08/06 04:03:33;;;;;;;4.50;2.58;;;;;;;-145.69;100.00;71537.72;5013807;28;20279;-77
2022/08/06 04:06:00;;;;;;;4.85;2.55;;;;;;;-145.69;100.00;71541.69;5014319;28;20227;-77
2022/08/06 04:08:27;;;;;;;5.18;2.92;;;;;;;-145.69;100.00;71549.66;5014152;28;20224;-75
2022/08/06 04:10:54;;;;;;;6.65;2.88;;;;;;;-145.69;100.00;71559.59;5014155;28;20201;-75
2022/08/06 04:13:23;;;;;;;4.85;2.78;;;;;;;-145.69;100.00;71569.53;5013669;28;20208;-76
2022/08/06 04:15:53;;;;;;;6.47;2.88;;;;;;;-145.69;100.00;71573.53;5013657;28;20208;-75
2022/08/06 04:18:22;;;;;;;5.13;2.72;;;;;;;-145.69;100.00;71571.53;5013880;28;20229;-75
2022/08/06 04:20:52;;;;;;;5.72;2.60;;;;;;;-145.69;100.00;71577.50;5013973;28;20205;-76
2022/08/06 04:23:18;;;;;;;5.78;2.70;;;;;;;-145.69;100.00;71581.50;5013636;28;20201;-76
2022/08/06 04:25:47;;;;;;;3.67;2.45;;;;;;;-145.69;100.00;71601.38;5013704;28;20685;-75
2022/08/06 04:28:16;;;;;;;3.90;2.63;;;;;;;-145.69;100.00;71601.38;5013628;28;20258;-76
2022/08/06 04:30:43;;;;;;;6.80;2.85;;;;;;;-145.69;100.00;71599.41;5013832;28;20201;-75
2022/08/06 04:33:15;;;;;;;7.40;2.88;;;;;;;-145.69;100.00;71599.41;5013803;28;20201;-74
2022/08/06 04:35:43;;;;;;;3.92;2.30;;;;;;;-145.69;100.00;71605.38;5013816;28;20255;-75
2022/08/06 04:38:10;;;;;;;6.07;2.50;;;;;;;-145.69;100.00;71593.44;5013698;28;20611;-74
2022/08/06 04:40:38;;;;;;;4.30;2.40;;;;;;;-145.69;100.00;71587.47;5013474;28;20235;-75
2022/08/06 04:43:05;;;;;;;4.72;2.45;;;;;;;-145.69;100.00;71589.44;5031272;28;20196;-74
2022/08/06 04:45:33;;;;;;;5.75;2.60;;;;;;;-145.69;100.00;71587.47;5032908;28;20662;-75
2022/08/06 04:48:00;;;;;;;5.63;2.20;;;;;;;-145.69;100.00;71595.41;5033005;28;20227;-74
2022/08/06 04:50:28;;;;;;;6.07;2.50;;;;;;;-145.69;100.00;71585.47;5032840;28;20200;-74
2022/08/06 04:53:04;;;;;;;4.45;2.10;;;;;;;-145.69;100.00;71579.50;5033110;28;20204;-75
2022/08/06 04:55:31;;;;;;;4.63;2.45;;;;;;;-145.69;100.00;71577.50;5032937;28;20199;-74
2022/08/06 04:57:57;;;;;;;7.32;2.30;;;;;;;-145.69;100.00;71589.44;5033168;28;20200;-75
2022/08/06 05:00:25;;;;;;;2.97;1.80;;;;;;;-145.69;100.00;71587.47;5032462;28;20196;-75
2022/08/06 05:02:52;;;;;;;5.00;2.22;;;;;;;-145.69;100.00;71585.47;5033079;28;20344;-74
2022/08/06 05:05:21;;;;;;;2.72;2.00;;;;;;;-145.69;100.00;71587.47;5032821;28;20707;-75
2022/08/06 05:07:52;;;;;;;6.38;2.20;;;;;;;-145.69;100.00;71597.41;5032242;28;20285;-74
2022/08/06 05:10:20;;;;;;;6.25;2.05;;;;;;;-145.69;100.00;71605.38;5032934;28;20199;-75
2022/08/06 05:12:52;;;;;;;4.03;2.00;;;;;;;-145.69;100.00;71597.41;5032467;28;20540;-75
2022/08/06 05:15:23;;;;;;;6.22;2.05;;;;;;;-145.69;100.00;71593.44;5032972;28;20208;-75
2022/08/06 05:17:53;;;;;;;3.25;2.05;;;;;;;-145.69;100.00;71595.41;5032476;28;20204;-75
2022/08/06 05:20:21;;;;;;;8.35;2.15;;;;;;;-145.69;100.00;71589.44;5032794;28;20206;-75
2022/08/06 05:22:53;;;;;;;2.92;1.90;;;;;;;-145.69;100.00;71591.44;5032905;28;20208;-74
2022/08/06 05:25:20;;;;;;;4.18;2.63;;;;;;;-145.69;100.00;71597.41;5032840;28;20207;-75
2022/08/06 05:27:47;;;;;;;2.38;1.60;;;;;;;-145.69;100.00;71589.44;5032786;28;20658;-75
2022/08/06 05:30:14;;;;;;;7.22;2.13;;;;;;;-145.69;100.00;71595.41;4998883;28;20209;-74
2022/08/06 05:32:42;;;;;;;4.53;2.20;;;;;;;-145.69;100.00;71593.44;4993497;28;20205;-75
2022/08/06 05:35:09;;;;;;;4.53;1.90;;;;;;;-145.69;100.00;71609.34;4993329;28;20259;-74
2022/08/06 05:37:35;;;;;;;8.00;1.70;;;;;;;-145.69;100.00;71599.41;4993323;28;20201;-75
2022/08/06 05:40:04;;;;;;;5.00;2.50;;;;;;;-145.69;100.00;71601.38;4993566;28;20232;-75
2022/08/06 05:42:30;;;;;;;2.88;1.77;;;;;;;-145.69;100.00;71601.38;5020175;28;20203;-76
2022/08/06 05:44:57;;;;;;;6.28;2.10;;;;;;;-145.69;100.00;71595.41;5031932;28;20662;-75
2022/08/06 05:47:27;;;;;;;3.20;1.73;;;;;;;-145.69;100.00;71599.41;5032577;28;20228;-75
2022/08/06 05:49:58;;;;;;;5.82;2.00;;;;;;;-145.69;100.00;71585.47;5032841;28;20196;-76
2022/08/06 05:52:46;;;;;;;6.13;2.10;;;;;;;-145.69;100.00;71583.47;5032398;28;20207;-76
2022/08/06 05:55:17;;;;;;;4.55;1.98;;;;;;;-145.69;100.00;71587.47;5032484;28;20197;-76
2022/08/06 05:57:49;;;;;;;6.68;2.20;;;;;;;-145.69;100.00;71605.38;5032505;28;20200;-75
2022/08/06 06:00:18;;;;;;;2.67;2.13;;;;;;;-145.69;100.00;71605.38;5032486;28;20555;-75
2022/08/06 06:02:48;;;;;;;2.30;1.70;;;;;;;-145.69;100.00;71587.47;5032346;28;20204;-76
2022/08/06 06:05:16;;;;;;;4.25;2.20;;;;;;;-145.69;100.00;71593.44;5032417;28;20232;-76
2022/08/06 06:07:43;;;;;;;4.28;2.00;;;;;;;-145.69;100.00;71585.47;5032181;28;20232;-75
2022/08/06 06:10:12;;;;;;;5.45;2.35;;;;;;;-145.69;100.00;71573.53;5032059;28;20196;-75
2022/08/06 06:12:41;;;;;;;2.80;2.00;;;;;;;-145.69;100.00;71557.59;5032315;28;20742;-75
2022/08/06 06:15:12;;;;;;;4.63;1.90;;;;;;;-145.69;100.00;71553.63;5032409;28;20213;-77
2022/08/06 06:17:58;;;;;;;3.33;1.67;;;;;;;-145.69;100.00;71545.66;5032504;28;20196;-76
2022/08/06 06:20:35;;;;;;;3.05;1.70;;;;;;;-145.69;100.00;71533.72;5031585;28;20737;-75
2022/08/06 06:23:06;;;;;;;4.05;1.60;;;;;;;-145.69;100.00;71515.81;5032368;28;20234;-76
2022/08/06 06:25:38;;;;;;;4.72;1.95;;;;;;;-145.69;100.00;71519.81;5034166;28;20212;-75
2022/08/06 06:28:14;;;;;;;3.70;1.85;;;;;;;-145.69;100.00;71511.84;5035395;28;20698;-75
2022/08/06 06:30:47;;;;;;;7.57;1.90;;;;;;;-145.69;99.39;71497.91;5035791;28;20619;-74
2022/08/06 06:33:19;;;;;;;2.58;2.00;;;;;;;-145.69;100.00;71497.91;5035670;28;20200;-74
2022/08/06 06:35:52;;;;;;;4.28;1.85;;;;;;;-145.69;98.26;71543.69;5035830;28;20208;-75
2022/08/06 06:38:27;;;;;;;3.00;1.92;;;;;;;-145.69;100.00;71535.72;5035558;28;20219;-75
2022/08/06 06:40:58;;;;;;;5.32;1.50;;;;;;;-145.69;97.09;71517.81;5035184;28;20454;-74
2022/08/06 06:43:34;;;;;;;5.70;1.90;;;;;;;-145.69;99.22;71517.81;5015947;28;20204;-75
2022/08/06 06:46:05;;;;;;;8.32;2.22;;;;;;;-145.69;98.15;71487.97;5015204;28;20211;-75
2022/08/06 06:48:36;;;;;;;3.50;1.58;;;;;;;-145.69;93.69;71466.06;5015657;28;20225;-76
2022/08/06 06:51:08;;;;;;;4.28;1.70;;;;;;;-145.69;93.12;71418.31;5015691;28;20541;-75
2022/08/06 06:53:40;;;;;;;4.35;1.70;;;;;;;-145.69;91.25;71420.31;5015125;28;20794;-74
2022/08/06 06:56:09;;;;;;;2.97;1.80;;;;;;;-145.69;91.84;71414.34;5015513;28;20655;-74
2022/08/06 06:58:39;;;;;;;4.35;1.83;;;;;;;-145.69;90.01;71416.31;5015296;28;20212;-73
2022/08/06 07:01:09;;;;;;;3.08;1.83;;;;;;;-145.69;90.16;71408.38;5015664;28;20205;-76
2022/08/06 07:03:38;;;;;;;5.82;2.00;;;;;;;-145.69;93.84;71394.44;5015568;28;20201;-74
2022/08/06 07:06:08;;;;;;;4.63;2.03;;;;;;;-145.69;90.40;71418.31;5015317;28;20201;-77
2022/08/06 07:08:40;;;;;;;7.60;2.00;;;;;;;-145.69;94.60;71418.31;5015055;28;20721;-75
2022/08/06 07:11:08;;;;;;;7.07;2.00;;;;;;;-145.69;89.70;71412.34;5015191;28;20638;-74
2022/08/06 07:13:37;;;;;;;3.42;1.65;;;;;;;-145.69;89.40;71390.47;5015044;28;20572;-74
2022/08/06 07:16:06;;;;;;;3.08;1.58;;;;;;;-145.69;91.13;71390.47;5013017;28;20296;-74
2022/08/06 07:18:34;;;;;;;4.05;1.83;;;;;;;-145.69;88.04;71408.38;4994626;28;20552;-74
2022/08/06 07:21:02;;;;;;;5.65;1.95;;;;;;;-145.69;88.77;71370.56;4995457;28;20212;-74
2022/08/06 07:23:30;;;;;;;3.72;1.42;;;;;;;-145.69;85.78;71356.63;4995270;28;20205;-74
2022/08/06 07:25:57;;;;;;;5.32;1.70;;;;;;;-145.69;88.18;71362.59;4995736;28;20232;-74
2022/08/06 07:28:25;;;;;;;5.53;1.75;;;;;;;-145.69;90.63;71338.72;4995322;28;20225;-74
2022/08/06 07:30:54;;;;;;;2.40;1.70;;;;;;;-145.69;87.47;71326.78;4995103;28;20208;-74
2022/08/06 07:33:22;;;;;;;3.35;1.60;;;;;;;-145.69;88.19;71314.84;4994955;28;20201;-74
2022/08/06 07:35:51;;;;;;;3.75;2.20;;;;;;;-145.69;83.92;71298.94;4994631;28;20206;-74
2022/08/06 07:38:20;;;;;;;5.25;1.77;;;;;;;-145.69;86.58;71344.69;4995339;28;20297;-75
2022/08/06 07:40:52;;;;;;;3.33;1.83;;;;;;;-145.69;85.68;71324.78;4995223;28;20201;-74
2022/08/06 07:43:21;;;;;;;4.57;1.67;;;;;;;-145.69;86.04;71306.88;4994974;28;20322;-75
2022/08/06 07:45:50;;;;;;;4.70;2.10;;;;;;;-145.69;86.26;71290.97;4994975;28;20212;-75
2022/08/06 07:48:23;;;;;;;3.50;1.48;;;;;;;-145.69;83.11;71294.94;4994708;28;20631;-76
2022/08/06 07:50:51;;;;;;;5.03;1.63;;;;;;;-145.69;84.64;71294.94;4994893;28;20210;-74
2022/08/06 07:53:19;;;;;;;3.28;1.58;;;;;;;-145.69;82.67;71231.28;4994968;28;20255;-75
2022/08/06 07:55:47;;;;;;;4.45;1.70;;;;;;;-145.69;82.71;71205.41;4994755;28;20690;-77
2022/08/06 07:58:15;;;;;;;5.00;1.70;;;;;;;-145.69;79.31;71163.63;4994756;28;20216;-75
2022/08/06 08:00:43;;;;;;;4.13;1.80;;;;;;;-145.69;82.60;71173.56;4994407;28;20198;-75
2022/08/06 08:08:41;;;;;;;5.80;1.60;;;;;;;-145.69;80.14;71245.19;4994518;28;20235;-76
2022/08/06 08:11:09;;;;;;;6.85;1.50;;;;;;;-145.69;82.60;71245.19;4994561;28;20560;-75
2022/08/06 08:13:38;;;;;;;2.28;1.60;;;;;;;-145.69;84.98;71211.38;4994246;28;20206;-75
2022/08/06 08:16:07;;;;;;;4.03;1.90;;;;;;;-145.69;81.47;71195.47;4994528;28;20197;-75
2022/08/06 08:18:33;;;;;;;4.50;1.80;;;;;;;-145.69;78.38;71219.34;4994362;28;20225;-75
2022/08/06 08:21:03;;;;;;;5.18;1.67;;;;;;;-145.69;79.70;71183.50;4994470;28;20224;-74
2022/08/06 08:23:31;;;;;;;2.88;1.45;;;;;;;-145.69;77.79;71119.84;4994528;28;20214;-76
2022/08/06 08:26:00;;;;;;;3.30;1.67;;;;;;;-145.69;74.12;71135.75;4993847;28;20633;-76
2022/08/06 08:28:26;;;;;;;4.15;1.67;;;;;;;-145.69;77.61;71135.75;4994145;28;20229;-76
2022/08/06 08:30:53;;;;;;;7.75;1.90;;;;;;;-145.69;77.80;71213.38;4993534;28;20209;-78
2022/08/06 08:33:20;;;;;;;3.00;1.52;;;;;;;-145.69;76.60;71191.47;4994009;28;20537;-76
2022/08/06 08:35:47;;;;;;;5.57;1.70;;;;;;;-145.69;77.02;71199.44;4993848;28;20209;-75
2022/08/06 08:38:14;;;;;;;2.65;1.58;;;;;;;-145.69;83.04;71255.16;4993905;28;20232;-76
2022/08/06 08:40:42;;;;;;;5.53;1.70;;;;;;;-145.69;78.85;71207.38;4993701;28;20213;-76
2022/08/06 08:43:14;;;;;;;4.65;1.95;;;;;;;-145.69;82.62;71223.31;5030550;28;20677;-74
2022/08/06 08:45:44;;;;;;;3.47;1.80;;;;;;;-145.69;75.83;71155.66;5021042;28;20201;-75
2022/08/06 08:48:12;;;;;;;5.47;1.80;;;;;;;-145.69;75.35;71103.94;5002864;28;20201;-77
2022/08/06 08:50:43;;;;;;;7.63;1.95;;;;;;;-145.69;69.47;71086.03;5009038;28;20219;-77
2022/08/06 08:53:14;;;;;;;2.85;1.85;;;;;;;-145.69;76.01;71064.13;5009627;28;20555;-76
2022/08/06 08:55:42;;;;;;;5.55;2.22;;;;;;;-145.69;68.67;71062.13;5013402;28;20219;-76
2022/08/06 08:58:09;;;;;;;4.82;1.65;;;;;;;-145.69;72.40;71020.34;5013319;28;20208;-77
2022/08/06 09:00:36;;;;;;;6.22;1.77;;;;;;;-145.69;62.90;71036.28;5013207;28;20412;-76
2022/08/06 09:03:05;;;;;;;2.30;1.60;;;;;;;-145.69;67.75;71026.31;5013196;28;20255;-76
2022/08/06 09:05:32;;;;;;;5.10;1.70;;;;;;;-145.69;71.12;71044.22;5013101;28;20205;-76
2022/08/06 09:07:59;;;;;;;7.47;1.70;;;;;;;-145.69;72.66;71052.19;5012853;28;20655;-76
2022/08/06 09:10:27;;;;;;;5.28;1.63;;;;;;;-145.69;67.07;71060.16;5013277;28;20258;-79
2022/08/06 09:12:55;;;;;;;3.35;1.80;;;;;;;-145.69;67.18;71080.06;5013222;28;20197;-77
2022/08/06 09:15:22;;;;;;;4.88;2.00;;;;;;;-145.69;67.73;71048.22;5013061;28;20201;-78
2022/08/06 09:17:48;;;;;;;2.55;1.85;;;;;;;-145.69;72.18;71044.22;5012676;28;20201;-77
2022/08/06 09:20:16;;;;;;;3.03;1.50;;;;;;;-145.69;65.90;70956.69;5012954;28;20211;-76
2022/08/06 09:22:44;;;;;;;3.05;1.75;;;;;;;-145.69;65.18;70966.63;5013118;28;20240;-76
2022/08/06 09:25:35;;;;;;;3.97;1.90;;;;;;;-145.69;65.00;70940.78;5013290;28;20197;-76
2022/08/06 09:28:04;;;;;;;3.55;1.60;;;;;;;-145.69;63.36;70897.00;5012806;28;20728;-76
2022/08/06 09:30:32;;;;;;;2.70;1.55;;;;;;;-145.69;63.69;70944.75;5012912;28;20212;-77
2022/08/06 09:32:58;;;;;;;5.40;1.73;;;;;;;-145.69;62.64;70976.59;5012834;28;20681;-77
2022/08/06 09:35:27;;;;;;;2.67;1.52;;;;;;;-145.69;62.30;70964.66;5012839;28;20205;-76
2022/08/06 09:38:01;;;;;;;4.43;1.85;;;;;;;-145.69;64.02;71010.41;5012896;28;20212;-77
2022/08/06 09:40:28;;;;;;;4.47;1.30;;;;;;;-145.69;66.09;71020.34;5013026;28;20311;-75
2022/08/06 09:42:54;;;;;;;4.63;1.63;;;;;;;-145.69;69.54;71042.25;5012698;28;20211;-76
2022/08/06 09:45:24;;;;;;;4.13;1.90;;;;;;;-145.69;69.26;71036.28;5024192;28;20199;-76
2022/08/06 09:48:04;;;;;;;4.40;2.10;;;;;;;-145.69;65.91;71018.38;5032720;28;20539;-76
2022/08/06 09:50:39;;;;;;;4.80;1.77;;;;;;;-145.69;68.25;71016.38;5032606;28;20235;-76
2022/08/06 09:53:06;;;;;;;3.08;1.80;;;;;;;-145.69;68.52;71036.28;5032707;28;20212;-74
2022/08/06 09:55:33;;;;;;;3.60;1.88;;;;;;;-145.69;69.45;71046.22;5032442;28;20199;-76
2022/08/06 09:58:00;;;;;;;2.53;2.00;;;;;;;-145.69;66.78;71052.19;5032367;28;20235;-76
2022/08/06 10:00:30;;;;;;;8.55;2.00;;;;;;;-145.69;68.16;71101.94;5035918;28;20278;-77
2022/08/06 10:02:57;;;;;;;2.78;2.00;;;;;;;-145.69;70.89;71151.69;5036041;28;20200;-76
2022/08/06 10:05:29;;;;;;;3.08;1.90;;;;;;;-145.69;71.32;71143.72;5035942;28;20295;-78
2022/08/06 10:08:05;;;;;;;4.75;2.33;;;;;;;-145.69;76.04;71253.16;5035994;28;20211;-77
2022/08/06 10:10:43;;;;;;;6.15;2.05;;;;;;;-145.69;75.30;71223.31;5036200;28;20285;-76
2022/08/06 10:13:16;;;;;;;6.70;2.33;;;;;;;-145.69;75.03;71247.19;5036104;28;20274;-77
2022/08/06 10:15:45;;;;;;;3.55;2.47;;;;;;;-145.69;76.43;71275.03;5036048;28;20204;-78
2022/08/06 10:18:29;;;;;;;4.55;2.25;;;;;;;-145.69;78.76;71286.97;5035806;28;20239;-76
2022/08/06 10:21:04;;;;;;;3.55;2.25;;;;;;;-145.69;76.62;71267.09;5036051;28;20204;-76
2022/08/06 10:23:33;;;;;;;5.28;2.22;;;;;;;-145.69;75.01;71227.28;5035931;28;20208;-76
2022/08/06 10:26:00;;;;;;;5.53;2.28;;;;;;;-145.69;75.20;71185.50;5035728;28;20528;-77
2022/08/06 10:28:27;;;;;;;4.65;2.17;;;;;;;-145.69;71.50;71137.75;5035424;28;20208;-77
2022/08/06 10:30:56;;;;;;;4.97;2.53;;;;;;;-145.69;69.35;71123.81;5035584;28;20200;-78
2022/08/06 10:33:24;;;;;;;3.50;2.42;;;;;;;-145.69;73.33;71149.69;5035901;28;20207;-78
2022/08/06 10:35:53;;;;;;;8.43;2.63;;;;;;;-145.69;70.43;71123.81;5035667;28;20579;-78
2022/08/06 10:38:24;;;;;;;8.18;2.08;;;;;;;-145.69;71.67;71147.69;5035575;28;20200;-78
2022/08/06 10:40:53;;;;;;;3.92;1.90;;;;;;;-145.69;74.71;71189.47;5035499;28;20197;-78
2022/08/06 10:43:20;;;;;;;4.43;1.90;;;;;;;-145.69;74.34;71153.66;5035392;28;20203;-77
2022/08/06 10:45:47;;;;;;;4.40;2.42;;;;;;;-145.69;75.27;71163.63;5020319;28;20529;-81
2022/08/06 10:48:15;;;;;;;10.32;2.13;;;;;;;-145.69;73.96;71177.53;5015605;28;20206;-79
2022/08/06 10:50:42;;;;;;;3.80;2.20;;;;;;;-145.69;73.90;71183.50;5015637;28;20521;-79
2022/08/06 10:53:10;;;;;;;5.28;2.50;;;;;;;-145.69;75.29;71231.28;5015650;28;20570;-77
2022/08/06 10:55:36;;;;;;;4.75;2.10;;;;;;;-145.69;76.90;71177.53;5015509;28;20603;-76
2022/08/06 10:58:03;;;;;;;3.67;2.30;;;;;;;-145.69;70.57;71139.75;5004580;28;20221;-78
2022/08/06 11:00:32;;;;;;;6.60;2.58;;;;;;;-145.69;70.37;71101.94;5007674;28;20193;-77
2022/08/06 11:03:08;;;;;;;5.10;1.95;;;;;;;-145.69;69.57;71111.88;5011230;28;20197;-78
2022/08/06 11:05:39;;;;;;;3.40;1.90;;;;;;;-145.69;68.60;71048.22;5010068;28;20222;-81
2022/08/06 11:08:18;;;;;;;6.40;1.60;;;;;;;-145.69;63.96;70964.66;5010723;28;20255;-83
2022/08/06 11:10:57;;;;;;;3.33;2.20;;;;;;;-145.69;64.39;70980.56;5010238;28;20232;-77
2022/08/06 11:13:30;;;;;;;3.75;1.90;;;;;;;-145.69;68.31;71002.44;5013031;28;20247;-76
2022/08/06 11:15:57;;;;;;;7.10;2.45;;;;;;;-145.69;64.46;71036.28;5008446;28;20208;-77
2022/08/06 11:18:23;;;;;;;2.50;2.13;;;;;;;-145.69;64.56;71018.38;5005563;28;20611;-75
2022/08/06 11:20:54;;;;;;;3.78;2.33;;;;;;;-145.69;65.20;71074.09;4990717;28;20213;-76
2022/08/06 11:23:28;;;;;;;4.70;2.22;;;;;;;-145.69;65.95;71042.25;4993465;28;20207;-76
2022/08/06 11:25:56;;;;;;;4.80;2.22;;;;;;;-145.69;63.81;71024.34;4996741;28;20209;-76
2022/08/06 11:28:56;;;;;;;4.13;2.25;;;;;;;-145.69;63.39;70988.53;4992540;28;20648;-78